sensor_id;sensor_type;location;lat;lon;timestamp;temperature;humidity
73141;SHT31;61339;50.558;4.696;2023-08-21T00:00:01;21.68;68.83
73141;SHT31;61339;50.558;4.696;2023-08-21T00:02:26;21.67;68.90
73141;SHT31;61339;50.558;4.696;2023-08-21T00:04:53;21.64;68.93
73141;SHT31;61339;50.558;4.696;2023-08-21T00:07:19;21.68;68.53
73141;SHT31;61339;50.558;4.696;2023-08-21T00:09:44;21.74;68.35
73141;SHT31;61339;50.558;4.696;2023-08-21T00:12:10;21.63;68.55
73141;SHT31;61339;50.558;4.696;2023-08-21T00:14:35;21.53;68.70
73141;SHT31;61339;50.558;4.696;2023-08-21T00:17:02;21.50;68.82
73141;SHT31;61339;50.558;4.696;2023-08-21T00:19:28;21.49;68.94
73141;SHT31;61339;50.558;4.696;2023-08-21T00:21:54;21.46;69.08
73141;SHT31;61339;50.558;4.696;2023-08-21T00:24:19;21.42;69.55
73141;SHT31;61339;50.558;4.696;2023-08-21T00:26:45;21.40;69.62
73141;SHT31;61339;50.558;4.696;2023-08-21T00:29:10;21.42;69.70
73141;SHT31;61339;50.558;4.696;2023-08-21T00:31:36;21.34;69.80
73141;SHT31;61339;50.558;4.696;2023-08-21T00:34:01;21.33;69.97
73141;SHT31;61339;50.558;4.696;2023-08-21T00:36:26;21.23;70.26
73141;SHT31;61339;50.558;4.696;2023-08-21T00:38:52;21.25;70.43
73141;SHT31;61339;50.558;4.696;2023-08-21T00:41:17;21.16;70.87
73141;SHT31;61339;50.558;4.696;2023-08-21T00:43:43;21.12;71.04
73141;SHT31;61339;50.558;4.696;2023-08-21T00:46:08;21.06;71.23
73141;SHT31;61339;50.558;4.696;2023-08-21T00:48:34;20.98;71.51
73141;SHT31;61339;50.558;4.696;2023-08-21T00:50:59;20.94;71.82
73141;SHT31;61339;50.558;4.696;2023-08-21T00:53:25;20.91;71.93
73141;SHT31;61339;50.558;4.696;2023-08-21T00:55:50;20.92;71.92
73141;SHT31;61339;50.558;4.696;2023-08-21T00:58:16;20.86;72.09
73141;SHT31;61339;50.558;4.696;2023-08-21T01:00:45;20.79;72.38
73141;SHT31;61339;50.558;4.696;2023-08-21T01:03:13;20.72;72.63
73141;SHT31;61339;50.558;4.696;2023-08-21T01:05:39;20.68;72.74
73141;SHT31;61339;50.558;4.696;2023-08-21T01:11:02;20.57;72.97
73141;SHT31;61339;50.558;4.696;2023-08-21T01:16:00;20.49;73.19
73141;SHT31;61339;50.558;4.696;2023-08-21T01:18:28;20.44;73.18
73141;SHT31;61339;50.558;4.696;2023-08-21T01:20:54;20.44;73.16
73141;SHT31;61339;50.558;4.696;2023-08-21T01:23:36;20.37;73.06
73141;SHT31;61339;50.558;4.696;2023-08-21T01:26:02;20.44;72.74
73141;SHT31;61339;50.558;4.696;2023-08-21T01:28:28;20.41;72.80
73141;SHT31;61339;50.558;4.696;2023-08-21T01:33:30;20.47;72.52
73141;SHT31;61339;50.558;4.696;2023-08-21T01:35:58;20.43;72.47
73141;SHT31;61339;50.558;4.696;2023-08-21T01:38:30;20.40;72.25
73141;SHT31;61339;50.558;4.696;2023-08-21T01:40:56;20.31;72.58
73141;SHT31;61339;50.558;4.696;2023-08-21T01:43:21;20.31;72.69
73141;SHT31;61339;50.558;4.696;2023-08-21T01:45:46;20.28;72.86
73141;SHT31;61339;50.558;4.696;2023-08-21T01:48:12;20.27;72.79
73141;SHT31;61339;50.558;4.696;2023-08-21T01:50:37;20.35;72.60
73141;SHT31;61339;50.558;4.696;2023-08-21T01:53:03;20.38;72.58
73141;SHT31;61339;50.558;4.696;2023-08-21T01:55:28;20.28;72.60
73141;SHT31;61339;50.558;4.696;2023-08-21T01:57:54;20.27;72.83
73141;SHT31;61339;50.558;4.696;2023-08-21T02:00:19;20.18;73.13
73141;SHT31;61339;50.558;4.696;2023-08-21T02:02:44;20.13;73.32
73141;SHT31;61339;50.558;4.696;2023-08-21T02:05:10;20.03;73.77
73141;SHT31;61339;50.558;4.696;2023-08-21T02:07:35;19.96;74.12
73141;SHT31;61339;50.558;4.696;2023-08-21T02:10:00;19.94;74.31
73141;SHT31;61339;50.558;4.696;2023-08-21T02:12:26;19.85;74.53
73141;SHT31;61339;50.558;4.696;2023-08-21T02:14:51;19.85;74.76
73141;SHT31;61339;50.558;4.696;2023-08-21T02:17:17;19.85;74.69
73141;SHT31;61339;50.558;4.696;2023-08-21T02:19:42;19.83;74.77
73141;SHT31;61339;50.558;4.696;2023-08-21T02:22:09;19.80;74.90
73141;SHT31;61339;50.558;4.696;2023-08-21T02:24:34;19.80;75.02
73141;SHT31;61339;50.558;4.696;2023-08-21T02:27:00;19.77;75.21
73141;SHT31;61339;50.558;4.696;2023-08-21T02:29:25;19.72;75.33
73141;SHT31;61339;50.558;4.696;2023-08-21T02:31:50;19.66;75.64
73141;SHT31;61339;50.558;4.696;2023-08-21T02:34:16;19.61;75.83
73141;SHT31;61339;50.558;4.696;2023-08-21T02:36:41;19.56;76.02
73141;SHT31;61339;50.558;4.696;2023-08-21T02:39:06;19.52;76.17
73141;SHT31;61339;50.558;4.696;2023-08-21T02:41:32;19.45;76.42
73141;SHT31;61339;50.558;4.696;2023-08-21T02:43:57;19.45;76.52
73141;SHT31;61339;50.558;4.696;2023-08-21T02:46:23;19.39;76.55
73141;SHT31;61339;50.558;4.696;2023-08-21T02:48:48;19.39;76.41
73141;SHT31;61339;50.558;4.696;2023-08-21T02:51:13;19.35;76.35
73141;SHT31;61339;50.558;4.696;2023-08-21T02:53:39;19.32;76.36
73141;SHT31;61339;50.558;4.696;2023-08-21T02:56:04;19.25;76.63
73141;SHT31;61339;50.558;4.696;2023-08-21T02:58:29;19.18;76.77
73141;SHT31;61339;50.558;4.696;2023-08-21T03:00:55;19.12;77.01
73141;SHT31;61339;50.558;4.696;2023-08-21T03:03:20;19.10;76.98
73141;SHT31;61339;50.558;4.696;2023-08-21T03:05:46;19.12;76.94
73141;SHT31;61339;50.558;4.696;2023-08-21T03:08:11;19.11;76.81
73141;SHT31;61339;50.558;4.696;2023-08-21T03:10:36;19.10;76.82
73141;SHT31;61339;50.558;4.696;2023-08-21T03:13:02;19.08;76.74
73141;SHT31;61339;50.558;4.696;2023-08-21T03:15:28;19.03;76.89
73141;SHT31;61339;50.558;4.696;2023-08-21T03:17:55;19.15;76.36
73141;SHT31;61339;50.558;4.696;2023-08-21T03:20:21;19.07;76.54
73141;SHT31;61339;50.558;4.696;2023-08-21T03:22:46;19.04;76.72
73141;SHT31;61339;50.558;4.696;2023-08-21T03:25:12;19.06;76.64
73141;SHT31;61339;50.558;4.696;2023-08-21T03:27:38;19.01;76.70
73141;SHT31;61339;50.558;4.696;2023-08-21T03:30:06;19.00;76.63
73141;SHT31;61339;50.558;4.696;2023-08-21T03:32:32;18.94;76.66
73141;SHT31;61339;50.558;4.696;2023-08-21T03:34:58;18.94;76.72
73141;SHT31;61339;50.558;4.696;2023-08-21T03:37:24;18.88;76.94
73141;SHT31;61339;50.558;4.696;2023-08-21T03:39:49;18.84;77.14
73141;SHT31;61339;50.558;4.696;2023-08-21T03:42:14;18.81;77.19
73141;SHT31;61339;50.558;4.696;2023-08-21T03:44:40;18.81;77.10
73141;SHT31;61339;50.558;4.696;2023-08-21T03:47:05;18.91;76.74
73141;SHT31;61339;50.558;4.696;2023-08-21T03:49:31;18.83;76.87
73141;SHT31;61339;50.558;4.696;2023-08-21T03:51:56;18.76;77.09
73141;SHT31;61339;50.558;4.696;2023-08-21T03:54:21;18.70;77.25
73141;SHT31;61339;50.558;4.696;2023-08-21T03:56:47;18.73;77.37
73141;SHT31;61339;50.558;4.696;2023-08-21T03:59:12;18.71;77.28
73141;SHT31;61339;50.558;4.696;2023-08-21T04:01:38;18.70;77.24
73141;SHT31;61339;50.558;4.696;2023-08-21T04:04:03;18.71;77.16
73141;SHT31;61339;50.558;4.696;2023-08-21T04:06:28;18.68;77.27
73141;SHT31;61339;50.558;4.696;2023-08-21T04:08:54;18.67;77.49
73141;SHT31;61339;50.558;4.696;2023-08-21T04:11:20;18.64;77.67
73141;SHT31;61339;50.558;4.696;2023-08-21T04:13:45;18.59;77.87
73141;SHT31;61339;50.558;4.696;2023-08-21T04:16:10;18.53;77.95
73141;SHT31;61339;50.558;4.696;2023-08-21T04:18:37;18.55;78.03
73141;SHT31;61339;50.558;4.696;2023-08-21T04:21:04;18.47;78.36
73141;SHT31;61339;50.558;4.696;2023-08-21T04:23:29;18.40;78.49
73141;SHT31;61339;50.558;4.696;2023-08-21T04:26:02;18.39;78.65
73141;SHT31;61339;50.558;4.696;2023-08-21T04:28:30;18.37;78.71
73141;SHT31;61339;50.558;4.696;2023-08-21T04:30:56;18.35;78.78
73141;SHT31;61339;50.558;4.696;2023-08-21T04:33:27;18.29;79.00
73141;SHT31;61339;50.558;4.696;2023-08-21T04:35:53;18.30;79.07
73141;SHT31;61339;50.558;4.696;2023-08-21T04:38:18;18.28;79.12
73141;SHT31;61339;50.558;4.696;2023-08-21T04:40:44;18.29;79.08
73141;SHT31;61339;50.558;4.696;2023-08-21T04:43:10;18.32;78.98
73141;SHT31;61339;50.558;4.696;2023-08-21T04:45:35;18.29;78.96
73141;SHT31;61339;50.558;4.696;2023-08-21T04:48:06;18.26;79.10
73141;SHT31;61339;50.558;4.696;2023-08-21T04:50:31;18.25;79.21
73141;SHT31;61339;50.558;4.696;2023-08-21T04:52:57;18.22;79.22
73141;SHT31;61339;50.558;4.696;2023-08-21T04:55:23;18.16;79.38
73141;SHT31;61339;50.558;4.696;2023-08-21T04:57:49;18.16;79.40
73141;SHT31;61339;50.558;4.696;2023-08-21T05:00:14;18.16;79.37
73141;SHT31;61339;50.558;4.696;2023-08-21T05:02:40;18.16;79.37
73141;SHT31;61339;50.558;4.696;2023-08-21T05:05:06;18.13;79.42
73141;SHT31;61339;50.558;4.696;2023-08-21T05:07:31;18.15;79.35
73141;SHT31;61339;50.558;4.696;2023-08-21T05:10:00;18.16;79.41
73141;SHT31;61339;50.558;4.696;2023-08-21T05:12:26;18.16;79.39
73141;SHT31;61339;50.558;4.696;2023-08-21T05:14:51;18.16;79.48
73141;SHT31;61339;50.558;4.696;2023-08-21T05:17:16;18.19;79.42
73141;SHT31;61339;50.558;4.696;2023-08-21T05:19:42;18.18;79.51
73141;SHT31;61339;50.558;4.696;2023-08-21T05:22:07;18.22;79.39
73141;SHT31;61339;50.558;4.696;2023-08-21T05:24:33;18.21;79.44
73141;SHT31;61339;50.558;4.696;2023-08-21T05:26:58;18.22;79.45
73141;SHT31;61339;50.558;4.696;2023-08-21T05:29:23;18.24;79.44
73141;SHT31;61339;50.558;4.696;2023-08-21T05:31:49;18.25;79.43
73141;SHT31;61339;50.558;4.696;2023-08-21T05:34:14;18.28;79.26
73141;SHT31;61339;50.558;4.696;2023-08-21T05:36:40;18.32;79.12
73141;SHT31;61339;50.558;4.696;2023-08-21T05:39:05;18.32;79.12
73141;SHT31;61339;50.558;4.696;2023-08-21T05:41:31;18.33;79.11
73141;SHT31;61339;50.558;4.696;2023-08-21T05:43:57;18.39;79.06
73141;SHT31;61339;50.558;4.696;2023-08-21T05:46:22;18.46;78.93
73141;SHT31;61339;50.558;4.696;2023-08-21T05:48:48;18.53;78.57
73141;SHT31;61339;50.558;4.696;2023-08-21T05:51:13;18.71;78.11
73141;SHT31;61339;50.558;4.696;2023-08-21T05:53:39;19.19;76.61
73141;SHT31;61339;50.558;4.696;2023-08-21T05:56:04;19.66;75.21
73141;SHT31;61339;50.558;4.696;2023-08-21T05:58:30;20.01;73.92
73141;SHT31;61339;50.558;4.696;2023-08-21T06:00:58;20.34;72.60
73141;SHT31;61339;50.558;4.696;2023-08-21T06:03:23;20.65;71.47
73141;SHT31;61339;50.558;4.696;2023-08-21T06:05:49;20.91;70.61
73141;SHT31;61339;50.558;4.696;2023-08-21T06:08:14;21.16;69.72
73141;SHT31;61339;50.558;4.696;2023-08-21T06:10:39;21.40;68.77
73141;SHT31;61339;50.558;4.696;2023-08-21T06:13:05;21.58;68.15
73141;SHT31;61339;50.558;4.696;2023-08-21T06:15:30;21.81;67.40
73141;SHT31;61339;50.558;4.696;2023-08-21T06:17:57;22.05;66.54
73141;SHT31;61339;50.558;4.696;2023-08-21T06:20:22;22.28;65.99
73141;SHT31;61339;50.558;4.696;2023-08-21T06:22:48;22.48;64.97
73141;SHT31;61339;50.558;4.696;2023-08-21T06:25:13;22.66;63.84
73141;SHT31;61339;50.558;4.696;2023-08-21T06:27:39;22.91;63.51
73141;SHT31;61339;50.558;4.696;2023-08-21T06:30:05;23.15;62.56
73141;SHT31;61339;50.558;4.696;2023-08-21T06:32:30;23.41;61.88
73141;SHT31;61339;50.558;4.696;2023-08-21T06:34:56;23.69;60.93
73141;SHT31;61339;50.558;4.696;2023-08-21T06:37:21;23.89;59.75
73141;SHT31;61339;50.558;4.696;2023-08-21T06:39:46;24.17;59.11
73141;SHT31;61339;50.558;4.696;2023-08-21T06:42:12;24.49;58.43
73141;SHT31;61339;50.558;4.696;2023-08-21T06:44:37;24.81;57.32
73141;SHT31;61339;50.558;4.696;2023-08-21T06:47:03;25.07;56.55
73141;SHT31;61339;50.558;4.696;2023-08-21T06:49:28;25.30;55.95
73141;SHT31;61339;50.558;4.696;2023-08-21T06:51:54;25.51;55.36
73141;SHT31;61339;50.558;4.696;2023-08-21T06:54:19;25.63;54.46
73141;SHT31;61339;50.558;4.696;2023-08-21T06:56:44;25.74;54.00
73141;SHT31;61339;50.558;4.696;2023-08-21T06:59:10;26.01;53.39
73141;SHT31;61339;50.558;4.696;2023-08-21T07:01:35;26.21;52.55
73141;SHT31;61339;50.558;4.696;2023-08-21T07:04:01;26.38;52.13
73141;SHT31;61339;50.558;4.696;2023-08-21T07:06:28;26.65;51.41
73141;SHT31;61339;50.558;4.696;2023-08-21T07:08:54;26.92;50.65
73141;SHT31;61339;50.558;4.696;2023-08-21T07:11:19;27.14;49.94
73141;SHT31;61339;50.558;4.696;2023-08-21T07:13:45;27.38;49.09
73141;SHT31;61339;50.558;4.696;2023-08-21T07:16:10;27.59;48.55
73141;SHT31;61339;50.558;4.696;2023-08-21T07:18:36;27.80;48.07
73141;SHT31;61339;50.558;4.696;2023-08-21T07:21:02;28.09;47.37
73141;SHT31;61339;50.558;4.696;2023-08-21T07:23:29;28.35;47.35
73141;SHT31;61339;50.558;4.696;2023-08-21T07:25:55;28.54;45.98
73141;SHT31;61339;50.558;4.696;2023-08-21T07:28:20;28.67;45.62
73141;SHT31;61339;50.558;4.696;2023-08-21T07:30:46;28.70;45.35
73141;SHT31;61339;50.558;4.696;2023-08-21T07:33:11;28.93;45.18
73141;SHT31;61339;50.558;4.696;2023-08-21T07:35:36;29.07;44.97
73141;SHT31;61339;50.558;4.696;2023-08-21T07:38:03;29.31;44.61
73141;SHT31;61339;50.558;4.696;2023-08-21T07:40:28;29.52;43.80
73141;SHT31;61339;50.558;4.696;2023-08-21T07:42:54;29.90;43.51
73141;SHT31;61339;50.558;4.696;2023-08-21T07:45:19;30.07;42.50
73141;SHT31;61339;50.558;4.696;2023-08-21T07:47:45;30.40;42.14
73141;SHT31;61339;50.558;4.696;2023-08-21T07:50:10;30.60;41.32
73141;SHT31;61339;50.558;4.696;2023-08-21T07:52:36;30.88;40.41
73141;SHT31;61339;50.558;4.696;2023-08-21T07:55:02;30.89;39.79
73141;SHT31;61339;50.558;4.696;2023-08-21T07:57:28;31.25;39.63
73141;SHT31;61339;50.558;4.696;2023-08-21T07:59:54;31.47;38.78
73141;SHT31;61339;50.558;4.696;2023-08-21T08:02:19;31.59;38.36
73141;SHT31;61339;50.558;4.696;2023-08-21T08:04:46;31.70;37.59
73141;SHT31;61339;50.558;4.696;2023-08-21T08:07:11;31.84;37.44
73141;SHT31;61339;50.558;4.696;2023-08-21T08:09:37;31.85;36.52
73141;SHT31;61339;50.558;4.696;2023-08-21T08:12:03;31.98;36.31
73141;SHT31;61339;50.558;4.696;2023-08-21T08:14:29;31.97;36.14
73141;SHT31;61339;50.558;4.696;2023-08-21T08:16:54;32.27;35.62
73141;SHT31;61339;50.558;4.696;2023-08-21T08:19:19;32.49;35.29
73141;SHT31;61339;50.558;4.696;2023-08-21T08:21:45;32.72;35.16
73141;SHT31;61339;50.558;4.696;2023-08-21T08:24:10;32.96;34.51
73141;SHT31;61339;50.558;4.696;2023-08-21T08:26:35;33.07;34.47
73141;SHT31;61339;50.558;4.696;2023-08-21T08:29:01;33.16;34.21
73141;SHT31;61339;50.558;4.696;2023-08-21T08:31:26;33.26;34.11
73141;SHT31;61339;50.558;4.696;2023-08-21T08:33:53;33.43;33.89
73141;SHT31;61339;50.558;4.696;2023-08-21T08:36:19;33.45;33.79
73141;SHT31;61339;50.558;4.696;2023-08-21T08:38:45;33.43;33.69
73141;SHT31;61339;50.558;4.696;2023-08-21T08:41:38;33.35;33.88
73141;SHT31;61339;50.558;4.696;2023-08-21T08:43:59;33.43;33.33
73141;SHT31;61339;50.558;4.696;2023-08-21T08:46:27;33.72;32.91
73141;SHT31;61339;50.558;4.696;2023-08-21T08:48:54;34.04;31.75
73141;SHT31;61339;50.558;4.696;2023-08-21T08:51:19;34.27;32.08
73141;SHT31;61339;50.558;4.696;2023-08-21T08:53:45;34.68;31.66
73141;SHT31;61339;50.558;4.696;2023-08-21T08:56:12;34.88;31.04
73141;SHT31;61339;50.558;4.696;2023-08-21T08:58:38;35.11;30.87
73141;SHT31;61339;50.558;4.696;2023-08-21T09:01:03;35.42;30.14
73141;SHT31;61339;50.558;4.696;2023-08-21T09:03:29;35.35;29.91
73141;SHT31;61339;50.558;4.696;2023-08-21T09:05:55;35.51;30.04
73141;SHT31;61339;50.558;4.696;2023-08-21T09:08:20;35.59;29.75
73141;SHT31;61339;50.558;4.696;2023-08-21T09:10:46;35.52;29.38
73141;SHT31;61339;50.558;4.696;2023-08-21T09:13:12;35.43;29.76
73141;SHT31;61339;50.558;4.696;2023-08-21T09:15:37;35.39;29.68
73141;SHT31;61339;50.558;4.696;2023-08-21T09:18:03;35.76;29.42
73141;SHT31;61339;50.558;4.696;2023-08-21T09:20:34;36.26;28.58
73141;SHT31;61339;50.558;4.696;2023-08-21T09:23:00;36.45;28.23
73141;SHT31;61339;50.558;4.696;2023-08-21T09:25:25;36.57;28.65
73141;SHT31;61339;50.558;4.696;2023-08-21T09:27:52;36.31;28.97
73141;SHT31;61339;50.558;4.696;2023-08-21T09:30:19;35.93;28.81
73141;SHT31;61339;50.558;4.696;2023-08-21T09:33:00;36.36;28.94
73141;SHT31;61339;50.558;4.696;2023-08-21T09:35:26;37.09;27.85
73141;SHT31;61339;50.558;4.696;2023-08-21T09:37:52;37.72;27.49
73141;SHT31;61339;50.558;4.696;2023-08-21T09:40:21;38.24;27.07
73141;SHT31;61339;50.558;4.696;2023-08-21T09:42:53;38.08;26.70
73141;SHT31;61339;50.558;4.696;2023-08-21T09:45:23;38.08;26.96
73141;SHT31;61339;50.558;4.696;2023-08-21T09:47:51;38.20;26.93
73141;SHT31;61339;50.558;4.696;2023-08-21T09:50:17;38.44;26.60
73141;SHT31;61339;50.558;4.696;2023-08-21T09:52:43;38.64;26.40
73141;SHT31;61339;50.558;4.696;2023-08-21T09:55:09;38.87;25.93
73141;SHT31;61339;50.558;4.696;2023-08-21T09:57:36;39.03;26.03
73141;SHT31;61339;50.558;4.696;2023-08-21T10:00:03;39.03;26.17
73141;SHT31;61339;50.558;4.696;2023-08-21T10:02:42;39.40;25.84
73141;SHT31;61339;50.558;4.696;2023-08-21T10:05:08;39.91;25.05
73141;SHT31;61339;50.558;4.696;2023-08-21T10:07:35;39.98;25.16
73141;SHT31;61339;50.558;4.696;2023-08-21T10:10:00;40.18;24.84
73141;SHT31;61339;50.558;4.696;2023-08-21T10:12:27;40.22;24.75
73141;SHT31;61339;50.558;4.696;2023-08-21T10:14:52;40.49;24.75
73141;SHT31;61339;50.558;4.696;2023-08-21T10:17:18;40.50;24.35
73141;SHT31;61339;50.558;4.696;2023-08-21T10:19:51;40.96;23.87
73141;SHT31;61339;50.558;4.696;2023-08-21T10:22:37;41.10;23.63
73141;SHT31;61339;50.558;4.696;2023-08-21T10:25:03;41.55;23.41
73141;SHT31;61339;50.558;4.696;2023-08-21T10:27:29;41.61;23.84
73141;SHT31;61339;50.558;4.696;2023-08-21T10:29:59;41.54;23.15
73141;SHT31;61339;50.558;4.696;2023-08-21T10:32:24;41.24;23.97
73141;SHT31;61339;50.558;4.696;2023-08-21T10:34:56;41.41;24.18
73141;SHT31;61339;50.558;4.696;2023-08-21T10:37:21;41.92;23.08
73141;SHT31;61339;50.558;4.696;2023-08-21T10:39:55;40.35;24.37
73141;SHT31;61339;50.558;4.696;2023-08-21T10:42:38;37.90;27.01
73141;SHT31;61339;50.558;4.696;2023-08-21T10:45:13;37.07;28.19
73141;SHT31;61339;50.558;4.696;2023-08-21T10:47:39;38.95;26.22
73141;SHT31;61339;50.558;4.696;2023-08-21T10:50:07;40.39;24.97
73141;SHT31;61339;50.558;4.696;2023-08-21T10:52:40;41.06;24.27
73141;SHT31;61339;50.558;4.696;2023-08-21T10:55:15;38.61;26.66
73141;SHT31;61339;50.558;4.696;2023-08-21T10:57:46;37.11;28.40
73141;SHT31;61339;50.558;4.696;2023-08-21T11:00:18;36.09;29.49
73141;SHT31;61339;50.558;4.696;2023-08-21T11:02:49;35.83;30.58
73141;SHT31;61339;50.558;4.696;2023-08-21T11:05:15;38.61;27.00
73141;SHT31;61339;50.558;4.696;2023-08-21T11:07:46;40.32;24.85
73141;SHT31;61339;50.558;4.696;2023-08-21T11:10:13;40.55;24.71
73141;SHT31;61339;50.558;4.696;2023-08-21T11:12:51;38.99;25.90
73141;SHT31;61339;50.558;4.696;2023-08-21T11:15:17;38.52;26.52
73141;SHT31;61339;50.558;4.696;2023-08-21T11:18:00;38.41;27.20
73141;SHT31;61339;50.558;4.696;2023-08-21T11:20:29;40.29;25.03
73141;SHT31;61339;50.558;4.696;2023-08-21T11:23:05;41.41;23.85
73141;SHT31;61339;50.558;4.696;2023-08-21T11:25:38;41.17;24.59
73141;SHT31;61339;50.558;4.696;2023-08-21T11:28:05;39.22;26.44
73141;SHT31;61339;50.558;4.696;2023-08-21T11:30:31;38.44;27.53
73141;SHT31;61339;50.558;4.696;2023-08-21T11:33:08;36.47;29.54
73141;SHT31;61339;50.558;4.696;2023-08-21T11:35:34;35.46;30.97
73141;SHT31;61339;50.558;4.696;2023-08-21T11:38:00;34.54;32.50
73141;SHT31;61339;50.558;4.696;2023-08-21T11:40:25;35.15;31.11
73141;SHT31;61339;50.558;4.696;2023-08-21T11:42:51;38.23;26.93
73141;SHT31;61339;50.558;4.696;2023-08-21T11:45:20;40.43;24.66
73141;SHT31;61339;50.558;4.696;2023-08-21T11:47:46;41.88;23.58
73141;SHT31;61339;50.558;4.696;2023-08-21T11:50:14;42.91;22.59
73141;SHT31;61339;50.558;4.696;2023-08-21T11:52:40;43.45;22.06
73141;SHT31;61339;50.558;4.696;2023-08-21T11:55:09;43.18;22.43
73141;SHT31;61339;50.558;4.696;2023-08-21T11:57:46;43.82;21.65
73141;SHT31;61339;50.558;4.696;2023-08-21T12:00:11;41.04;24.10
73141;SHT31;61339;50.558;4.696;2023-08-21T12:02:37;38.79;26.41
73141;SHT31;61339;50.558;4.696;2023-08-21T12:05:04;37.55;28.15
73141;SHT31;61339;50.558;4.696;2023-08-21T12:07:31;39.53;25.54
73141;SHT31;61339;50.558;4.696;2023-08-21T12:09:57;41.23;24.02
73141;SHT31;61339;50.558;4.696;2023-08-21T12:12:23;42.25;23.41
73141;SHT31;61339;50.558;4.696;2023-08-21T12:14:49;42.74;22.81
73141;SHT31;61339;50.558;4.696;2023-08-21T12:17:14;42.75;22.70
73141;SHT31;61339;50.558;4.696;2023-08-21T12:19:39;42.72;22.50
73141;SHT31;61339;50.558;4.696;2023-08-21T12:22:05;41.92;23.34
73141;SHT31;61339;50.558;4.696;2023-08-21T12:24:31;39.26;25.35
73141;SHT31;61339;50.558;4.696;2023-08-21T12:26:56;37.65;27.27
73141;SHT31;61339;50.558;4.696;2023-08-21T12:29:22;36.67;29.09
73141;SHT31;61339;50.558;4.696;2023-08-21T12:31:47;36.17;29.49
73141;SHT31;61339;50.558;4.696;2023-08-21T12:34:13;36.67;28.73
73141;SHT31;61339;50.558;4.696;2023-08-21T12:36:38;39.40;25.36
73141;SHT31;61339;50.558;4.696;2023-08-21T12:39:05;40.84;23.80
73141;SHT31;61339;50.558;4.696;2023-08-21T12:41:31;41.89;23.20
73141;SHT31;61339;50.558;4.696;2023-08-21T12:43:58;42.58;21.70
73141;SHT31;61339;50.558;4.696;2023-08-21T12:46:24;42.46;21.98
73141;SHT31;61339;50.558;4.696;2023-08-21T12:48:49;42.99;21.80
73141;SHT31;61339;50.558;4.696;2023-08-21T12:51:15;43.34;21.76
73141;SHT31;61339;50.558;4.696;2023-08-21T12:53:40;43.80;21.14
73141;SHT31;61339;50.558;4.696;2023-08-21T12:56:05;44.05;21.28
73141;SHT31;61339;50.558;4.696;2023-08-21T12:58:31;41.30;23.63
73141;SHT31;61339;50.558;4.696;2023-08-21T13:00:58;39.44;25.50
73141;SHT31;61339;50.558;4.696;2023-08-21T13:03:23;38.00;27.17
73141;SHT31;61339;50.558;4.696;2023-08-21T13:05:49;36.81;28.52
73141;SHT31;61339;50.558;4.696;2023-08-21T13:08:14;35.53;29.97
73141;SHT31;61339;50.558;4.696;2023-08-21T13:10:40;34.76;30.96
73141;SHT31;61339;50.558;4.696;2023-08-21T13:13:05;34.40;31.99
73141;SHT31;61339;50.558;4.696;2023-08-21T13:15:30;34.16;31.77
73141;SHT31;61339;50.558;4.696;2023-08-21T13:17:57;33.96;32.27
73141;SHT31;61339;50.558;4.696;2023-08-21T13:20:22;34.35;31.90
73141;SHT31;61339;50.558;4.696;2023-08-21T13:22:49;35.52;30.75
73141;SHT31;61339;50.558;4.696;2023-08-21T13:25:17;35.75;29.97
73141;SHT31;61339;50.558;4.696;2023-08-21T13:27:43;35.52;30.49
73141;SHT31;61339;50.558;4.696;2023-08-21T13:30:09;35.30;31.31
73141;SHT31;61339;50.558;4.696;2023-08-21T13:32:34;35.21;31.02
73141;SHT31;61339;50.558;4.696;2023-08-21T13:35:00;35.17;30.87
73141;SHT31;61339;50.558;4.696;2023-08-21T13:37:25;34.87;31.33
73141;SHT31;61339;50.558;4.696;2023-08-21T13:39:52;34.37;31.46
73141;SHT31;61339;50.558;4.696;2023-08-21T13:42:20;33.99;31.71
73141;SHT31;61339;50.558;4.696;2023-08-21T13:44:45;33.65;31.83
73141;SHT31;61339;50.558;4.696;2023-08-21T13:47:11;33.45;31.76
73141;SHT31;61339;50.558;4.696;2023-08-21T13:49:36;33.18;32.77
73141;SHT31;61339;50.558;4.696;2023-08-21T13:52:02;33.08;31.98
73141;SHT31;61339;50.558;4.696;2023-08-21T13:54:27;33.04;32.69
73141;SHT31;61339;50.558;4.696;2023-08-21T13:56:54;33.07;32.90
73141;SHT31;61339;50.558;4.696;2023-08-21T13:59:20;33.14;33.32
73141;SHT31;61339;50.558;4.696;2023-08-21T14:01:45;32.91;32.79
73141;SHT31;61339;50.558;4.696;2023-08-21T14:04:10;32.84;32.87
73141;SHT31;61339;50.558;4.696;2023-08-21T14:06:36;32.96;32.82
73141;SHT31;61339;50.558;4.696;2023-08-21T14:09:01;33.08;33.27
73141;SHT31;61339;50.558;4.696;2023-08-21T14:11:27;33.07;33.08
73141;SHT31;61339;50.558;4.696;2023-08-21T14:13:52;32.96;32.44
73141;SHT31;61339;50.558;4.696;2023-08-21T14:16:18;32.90;32.40
73141;SHT31;61339;50.558;4.696;2023-08-21T14:18:43;32.76;33.57
73141;SHT31;61339;50.558;4.696;2023-08-21T14:21:08;32.69;32.22
73141;SHT31;61339;50.558;4.696;2023-08-21T14:23:34;32.59;33.13
73141;SHT31;61339;50.558;4.696;2023-08-21T14:25:59;32.51;34.38
73141;SHT31;61339;50.558;4.696;2023-08-21T14:28:24;32.32;35.27
73141;SHT31;61339;50.558;4.696;2023-08-21T14:30:50;32.11;35.23
73141;SHT31;61339;50.558;4.696;2023-08-21T14:33:17;31.97;34.69
73141;SHT31;61339;50.558;4.696;2023-08-21T14:35:43;31.80;35.44
73141;SHT31;61339;50.558;4.696;2023-08-21T14:38:09;31.76;35.51
73141;SHT31;61339;50.558;4.696;2023-08-21T14:40:34;31.73;35.65
73141;SHT31;61339;50.558;4.696;2023-08-21T14:43:00;31.82;36.20
73141;SHT31;61339;50.558;4.696;2023-08-21T14:45:25;31.71;35.76
73141;SHT31;61339;50.558;4.696;2023-08-21T14:47:51;31.69;35.38
73141;SHT31;61339;50.558;4.696;2023-08-21T14:50:16;31.53;35.32
73141;SHT31;61339;50.558;4.696;2023-08-21T14:52:41;31.40;35.46
73141;SHT31;61339;50.558;4.696;2023-08-21T14:55:07;31.29;36.35
73141;SHT31;61339;50.558;4.696;2023-08-21T14:57:32;31.27;36.21
73141;SHT31;61339;50.558;4.696;2023-08-21T14:59:58;31.18;36.22
73141;SHT31;61339;50.558;4.696;2023-08-21T15:02:23;31.10;36.33
73141;SHT31;61339;50.558;4.696;2023-08-21T15:04:48;31.19;36.51
73141;SHT31;61339;50.558;4.696;2023-08-21T15:07:14;31.22;35.64
73141;SHT31;61339;50.558;4.696;2023-08-21T15:09:39;31.09;36.13
73141;SHT31;61339;50.558;4.696;2023-08-21T15:12:05;31.03;35.94
73141;SHT31;61339;50.558;4.696;2023-08-21T15:14:30;30.92;36.34
73141;SHT31;61339;50.558;4.696;2023-08-21T15:16:56;30.85;36.69
73141;SHT31;61339;50.558;4.696;2023-08-21T15:19:21;30.74;37.03
73141;SHT31;61339;50.558;4.696;2023-08-21T15:21:47;30.67;37.24
73141;SHT31;61339;50.558;4.696;2023-08-21T15:24:12;30.67;37.57
73141;SHT31;61339;50.558;4.696;2023-08-21T15:26:37;30.68;37.30
73141;SHT31;61339;50.558;4.696;2023-08-21T15:29:03;30.68;37.66
73141;SHT31;61339;50.558;4.696;2023-08-21T15:31:28;30.68;37.36